sensor_id;sensor_type;location;lat;lon;timestamp;pressure;altitude;pressure_sealevel;temperature;humidity
76321;BME280;65132;52.088;5.402;2023-03-23T00:02:16;100323.59;;;11.59;94.71
76321;BME280;65132;52.088;5.402;2023-03-23T00:04:41;100325.38;;;11.68;94.15
76321;BME280;65132;52.088;5.402;2023-03-23T00:07:06;100300.31;;;11.74;93.45
76321;BME280;65132;52.088;5.402;2023-03-23T00:09:32;100294.19;;;11.72;93.59
76321;BME280;65132;52.088;5.402;2023-03-23T00:11:57;100270.47;;;11.66;93.74
76321;BME280;65132;52.088;5.402;2023-03-23T00:14:23;100271.34;;;11.74;93.26
76321;BME280;65132;52.088;5.402;2023-03-23T00:16:49;100269.97;;;11.70;93.66
76321;BME280;65132;52.088;5.402;2023-03-23T00:19:14;100279.78;;;11.71;92.85
76321;BME280;65132;52.088;5.402;2023-03-23T00:21:41;100285.06;;;11.73;92.33
76321;BME280;65132;52.088;5.402;2023-03-23T00:24:12;100281.31;;;11.74;92.66
76321;BME280;65132;52.088;5.402;2023-03-23T00:26:40;100290.97;;;11.76;91.92
76321;BME280;65132;52.088;5.402;2023-03-23T00:29:25;100288.44;;;11.75;91.92
76321;BME280;65132;52.088;5.402;2023-03-23T00:31:51;100290.16;;;11.92;90.40
76321;BME280;65132;52.088;5.402;2023-03-23T00:34:21;100277.31;;;11.94;90.60
76321;BME280;65132;52.088;5.402;2023-03-23T00:36:49;100268.47;;;11.92;90.84
76321;BME280;65132;52.088;5.402;2023-03-23T00:39:17;100263.91;;;11.84;90.39
76321;BME280;65132;52.088;5.402;2023-03-23T00:41:46;100277.47;;;11.84;90.90
76321;BME280;65132;52.088;5.402;2023-03-23T00:44:12;100266.78;;;11.83;90.40
76321;BME280;65132;52.088;5.402;2023-03-23T00:46:38;100272.03;;;11.84;90.97
76321;BME280;65132;52.088;5.402;2023-03-23T00:49:03;100254.91;;;11.84;90.83
76321;BME280;65132;52.088;5.402;2023-03-23T00:51:28;100257.28;;;11.79;90.57
76321;BME280;65132;52.088;5.402;2023-03-23T00:53:54;100245.28;;;11.81;90.36
76321;BME280;65132;52.088;5.402;2023-03-23T00:56:19;100240.84;;;11.80;90.61
76321;BME280;65132;52.088;5.402;2023-03-23T00:58:44;100242.69;;;11.80;90.26
76321;BME280;65132;52.088;5.402;2023-03-23T01:01:10;100236.78;;;11.84;90.26
76321;BME280;65132;52.088;5.402;2023-03-23T01:03:35;100239.84;;;11.89;89.64
76321;BME280;65132;52.088;5.402;2023-03-23T01:06:06;100240.50;;;11.83;89.91
76321;BME280;65132;52.088;5.402;2023-03-23T01:08:34;100233.06;;;11.77;90.58
76321;BME280;65132;52.088;5.402;2023-03-23T01:11:06;100244.06;;;11.84;89.78
76321;BME280;65132;52.088;5.402;2023-03-23T01:13:32;100230.84;;;11.81;90.11
76321;BME280;65132;52.088;5.402;2023-03-23T01:15:57;100231.88;;;11.88;89.64
76321;BME280;65132;52.088;5.402;2023-03-23T01:18:22;100236.44;;;11.87;89.16
76321;BME280;65132;52.088;5.402;2023-03-23T01:20:48;100238.31;;;11.87;89.79
76321;BME280;65132;52.088;5.402;2023-03-23T01:23:13;100232.41;;;11.91;89.03
76321;BME280;65132;52.088;5.402;2023-03-23T01:25:38;100224.78;;;11.95;88.71
76321;BME280;65132;52.088;5.402;2023-03-23T01:28:04;100202.56;;;11.91;88.72
76321;BME280;65132;52.088;5.402;2023-03-23T01:30:29;100193.56;;;11.99;87.76
76321;BME280;65132;52.088;5.402;2023-03-23T01:32:57;100219.00;;;11.98;87.31
76321;BME280;65132;52.088;5.402;2023-03-23T01:35:22;100213.59;;;11.90;88.38
76321;BME280;65132;52.088;5.402;2023-03-23T01:37:48;100201.03;;;11.97;87.07
76321;BME280;65132;52.088;5.402;2023-03-23T01:40:15;100218.66;;;12.01;86.76
76321;BME280;65132;52.088;5.402;2023-03-23T01:42:41;100204.25;;;12.00;87.14
76321;BME280;65132;52.088;5.402;2023-03-23T01:45:29;100204.09;;;12.02;86.91
76321;BME280;65132;52.088;5.402;2023-03-23T01:48:03;100203.75;;;12.05;86.59
76321;BME280;65132;52.088;5.402;2023-03-23T01:50:36;100202.06;;;12.04;86.90
76321;BME280;65132;52.088;5.402;2023-03-23T01:53:04;100195.97;;;12.10;86.75
76321;BME280;65132;52.088;5.402;2023-03-23T01:55:31;100196.78;;;12.11;86.90
76321;BME280;65132;52.088;5.402;2023-03-23T01:57:56;100198.50;;;12.03;87.64
76321;BME280;65132;52.088;5.402;2023-03-23T02:00:25;100194.94;;;12.03;87.78
76321;BME280;65132;52.088;5.402;2023-03-23T02:02:51;100197.66;;;12.03;87.87
76321;BME280;65132;52.088;5.402;2023-03-23T02:05:26;100200.53;;;12.01;87.86
76321;BME280;65132;52.088;5.402;2023-03-23T02:07:54;100184.94;;;11.95;88.01
76321;BME280;65132;52.088;5.402;2023-03-23T02:10:21;100192.72;;;11.90;88.54
76321;BME280;65132;52.088;5.402;2023-03-23T02:12:47;100175.94;;;11.87;88.86
76321;BME280;65132;52.088;5.402;2023-03-23T02:15:12;100189.53;;;11.95;88.65
76321;BME280;65132;52.088;5.402;2023-03-23T02:31:56;100185.28;;;12.09;88.28
76321;BME280;65132;52.088;5.402;2023-03-23T02:34:34;100194.25;;;12.09;88.18
76321;BME280;65132;52.088;5.402;2023-03-23T02:37:07;100192.22;;;12.03;88.99
76321;BME280;65132;52.088;5.402;2023-03-23T02:39:44;100189.19;;;12.06;88.45
76321;BME280;65132;52.088;5.402;2023-03-23T02:42:18;100185.28;;;12.00;88.93
76321;BME280;65132;52.088;5.402;2023-03-23T02:44:46;100180.88;;;12.07;88.60
76321;BME280;65132;52.088;5.402;2023-03-23T02:47:17;100183.75;;;12.06;88.53
76321;BME280;65132;52.088;5.402;2023-03-23T02:49:46;100178.50;;;12.13;88.40
76321;BME280;65132;52.088;5.402;2023-03-23T02:52:16;100181.72;;;12.08;88.69
76321;BME280;65132;52.088;5.402;2023-03-23T02:54:47;100183.41;;;12.09;88.62
76321;BME280;65132;52.088;5.402;2023-03-23T02:57:13;100184.09;;;12.11;87.82
76321;BME280;65132;52.088;5.402;2023-03-23T02:59:39;100180.72;;;12.17;87.54
76321;BME280;65132;52.088;5.402;2023-03-23T03:04:38;100174.59;;;12.23;87.05
76321;BME280;65132;52.088;5.402;2023-03-23T03:09:47;100172.91;;;12.22;86.71
76321;BME280;65132;52.088;5.402;2023-03-23T03:12:30;100177.63;;;12.28;86.08
76321;BME280;65132;52.088;5.402;2023-03-23T03:15:22;100176.44;;;12.23;87.15
76321;BME280;65132;52.088;5.402;2023-03-23T03:18:24;100185.59;;;12.30;86.19
76321;BME280;65132;52.088;5.402;2023-03-23T03:21:01;100167.47;;;12.30;86.39
76321;BME280;65132;52.088;5.402;2023-03-23T03:23:28;100171.88;;;12.23;87.26
76321;BME280;65132;52.088;5.402;2023-03-23T03:25:55;100160.00;;;12.24;86.32
76321;BME280;65132;52.088;5.402;2023-03-23T03:28:22;100164.06;;;12.28;86.27
76321;BME280;65132;52.088;5.402;2023-03-23T03:30:53;100167.81;;;12.27;85.94
76321;BME280;65132;52.088;5.402;2023-03-23T03:33:22;100166.09;;;12.26;86.10
76321;BME280;65132;52.088;5.402;2023-03-23T03:35:53;100175.59;;;12.30;85.68
76321;BME280;65132;52.088;5.402;2023-03-23T03:38:22;100158.81;;;12.27;85.97
76321;BME280;65132;52.088;5.402;2023-03-23T03:40:48;100164.91;;;12.37;84.58
76321;BME280;65132;52.088;5.402;2023-03-23T03:43:16;100160.50;;;12.36;85.57
76321;BME280;65132;52.088;5.402;2023-03-23T03:45:41;100163.19;;;12.44;84.43
76321;BME280;65132;52.088;5.402;2023-03-23T03:48:07;100150.16;;;12.31;85.44
76321;BME280;65132;52.088;5.402;2023-03-23T03:50:32;100155.22;;;12.42;84.82
76321;BME280;65132;52.088;5.402;2023-03-23T03:52:58;100160.84;;;12.41;84.48
76321;BME280;65132;52.088;5.402;2023-03-23T03:55:23;100157.94;;;12.42;84.47
76321;BME280;65132;52.088;5.402;2023-03-23T03:57:49;100155.91;;;12.36;85.29
76321;BME280;65132;52.088;5.402;2023-03-23T04:00:14;100159.66;;;12.35;85.42
76321;BME280;65132;52.088;5.402;2023-03-23T04:02:46;100159.97;;;12.40;84.67
76321;BME280;65132;52.088;5.402;2023-03-23T04:05:11;100151.16;;;12.38;84.85
76321;BME280;65132;52.088;5.402;2023-03-23T04:07:37;100156.75;;;12.37;85.01
76321;BME280;65132;52.088;5.402;2023-03-23T04:10:02;100155.25;;;12.34;85.26
76321;BME280;65132;52.088;5.402;2023-03-23T04:12:27;100168.47;;;12.37;84.95
76321;BME280;65132;52.088;5.402;2023-03-23T04:14:53;100161.50;;;12.43;84.24
76321;BME280;65132;52.088;5.402;2023-03-23T04:17:18;100171.00;;;12.39;84.55
76321;BME280;65132;52.088;5.402;2023-03-23T04:19:46;100160.13;;;12.47;83.36
76321;BME280;65132;52.088;5.402;2023-03-23T04:22:14;100160.78;;;12.57;82.90
76321;BME280;65132;52.088;5.402;2023-03-23T04:24:39;100166.91;;;12.51;83.10
76321;BME280;65132;52.088;5.402;2023-03-23T04:27:05;100179.63;;;12.50;83.23
76321;BME280;65132;52.088;5.402;2023-03-23T04:29:30;100177.63;;;12.44;83.30
76321;BME280;65132;52.088;5.402;2023-03-23T04:31:56;100169.97;;;12.48;83.01
76321;BME280;65132;52.088;5.402;2023-03-23T04:34:22;100162.34;;;12.51;81.62
76321;BME280;65132;52.088;5.402;2023-03-23T04:36:47;100185.88;;;12.59;82.21
76321;BME280;65132;52.088;5.402;2023-03-23T04:39:13;100193.88;;;12.52;82.02
76321;BME280;65132;52.088;5.402;2023-03-23T04:41:41;100188.09;;;12.55;82.10
76321;BME280;65132;52.088;5.402;2023-03-23T04:44:08;100200.00;;;12.54;81.67
76321;BME280;65132;52.088;5.402;2023-03-23T04:46:33;100194.06;;;12.43;83.05
76321;BME280;65132;52.088;5.402;2023-03-23T04:48:59;100197.28;;;12.54;82.06
76321;BME280;65132;52.088;5.402;2023-03-23T04:51:25;100196.59;;;12.52;81.35
76321;BME280;65132;52.088;5.402;2023-03-23T04:53:54;100203.69;;;12.53;81.16
76321;BME280;65132;52.088;5.402;2023-03-23T04:56:20;100210.84;;;12.54;81.29
76321;BME280;65132;52.088;5.402;2023-03-23T04:58:46;100203.53;;;12.55;81.06
76321;BME280;65132;52.088;5.402;2023-03-23T05:01:15;100194.56;;;12.54;81.26
76321;BME280;65132;52.088;5.402;2023-03-23T05:03:41;100194.03;;;12.59;80.57
76321;BME280;65132;52.088;5.402;2023-03-23T05:06:06;100215.09;;;12.49;81.32
76321;BME280;65132;52.088;5.402;2023-03-23T05:08:32;100178.28;;;12.54;80.78
76321;BME280;65132;52.088;5.402;2023-03-23T05:10:59;100191.50;;;12.41;81.57
76321;BME280;65132;52.088;5.402;2023-03-23T05:13:25;100204.59;;;12.46;81.64
76321;BME280;65132;52.088;5.402;2023-03-23T05:15:54;100202.38;;;12.41;81.97
76321;BME280;65132;52.088;5.402;2023-03-23T05:18:31;100210.50;;;12.41;81.90
76321;BME280;65132;52.088;5.402;2023-03-23T05:21:01;100205.09;;;12.33;82.92
76321;BME280;65132;52.088;5.402;2023-03-23T05:23:29;100206.13;;;12.32;82.87
76321;BME280;65132;52.088;5.402;2023-03-23T05:25:58;100199.19;;;12.22;83.59
76321;BME280;65132;52.088;5.402;2023-03-23T05:28:23;100200.03;;;12.22;83.56
76321;BME280;65132;52.088;5.402;2023-03-23T05:30:49;100194.78;;;12.21;83.83
76321;BME280;65132;52.088;5.402;2023-03-23T05:33:14;100207.50;;;12.20;83.78
76321;BME280;65132;52.088;5.402;2023-03-23T05:35:40;100210.56;;;12.17;83.76
76321;BME280;65132;52.088;5.402;2023-03-23T05:38:05;100208.34;;;12.21;83.58
76321;BME280;65132;52.088;5.402;2023-03-23T05:40:33;100203.91;;;12.20;83.87
76321;BME280;65132;52.088;5.402;2023-03-23T05:42:58;100207.84;;;12.17;84.58
76321;BME280;65132;52.088;5.402;2023-03-23T05:45:27;100221.22;;;12.02;85.06
76321;BME280;65132;52.088;5.402;2023-03-23T05:47:52;100215.31;;;12.07;85.01
76321;BME280;65132;52.088;5.402;2023-03-23T05:50:17;100213.91;;;12.11;84.76
76321;BME280;65132;52.088;5.402;2023-03-23T05:52:43;100206.97;;;12.00;84.93
76321;BME280;65132;52.088;5.402;2023-03-23T05:55:09;100220.53;;;12.17;83.88
76321;BME280;65132;52.088;5.402;2023-03-23T05:57:35;100216.13;;;12.16;84.07
76321;BME280;65132;52.088;5.402;2023-03-23T06:00:00;100237.50;;;12.19;84.53
76321;BME280;65132;52.088;5.402;2023-03-23T06:02:26;100232.56;;;12.06;86.17
76321;BME280;65132;52.088;5.402;2023-03-23T06:04:51;100242.38;;;11.91;87.59
76321;BME280;65132;52.088;5.402;2023-03-23T06:07:17;100245.56;;;11.78;90.63
76321;BME280;65132;52.088;5.402;2023-03-23T06:10:40;63831.50;;;-140.59;100.00
76321;BME280;65132;52.088;5.402;2023-03-23T06:14:04;63831.50;;;-140.59;100.00
76321;BME280;65132;52.088;5.402;2023-03-23T06:17:28;63831.50;;;-140.59;100.00
76321;BME280;65132;52.088;5.402;2023-03-23T06:20:52;63831.50;;;-140.59;100.00
76321;BME280;65132;52.088;5.402;2023-03-23T06:24:18;63831.50;;;-140.59;100.00
76321;BME280;65132;52.088;5.402;2023-03-23T06:27:42;63831.50;;;-140.59;100.00
76321;BME280;65132;52.088;5.402;2023-03-23T06:31:06;63831.50;;;-140.59;100.00
76321;BME280;65132;52.088;5.402;2023-03-23T06:34:30;63831.50;;;-140.59;100.00
76321;BME280;65132;52.088;5.402;2023-03-23T06:37:55;63831.50;;;-140.59;100.00
76321;BME280;65132;52.088;5.402;2023-03-23T06:41:23;63831.50;;;-140.59;100.00
76321;BME280;65132;52.088;5.402;2023-03-23T06:44:49;63831.50;;;-140.59;100.00
76321;BME280;65132;52.088;5.402;2023-03-23T06:48:13;63831.50;;;-140.59;100.00
76321;BME280;65132;52.088;5.402;2023-03-23T06:51:41;63831.50;;;-140.59;100.00
76321;BME280;65132;52.088;5.402;2023-03-23T06:55:05;63831.50;;;-140.59;100.00
76321;BME280;65132;52.088;5.402;2023-03-23T06:58:29;63831.50;;;-140.59;100.00
76321;BME280;65132;52.088;5.402;2023-03-23T07:01:58;63831.50;;;-140.59;100.00
76321;BME280;65132;52.088;5.402;2023-03-23T07:05:28;63831.50;;;-140.59;100.00
76321;BME280;65132;52.088;5.402;2023-03-23T07:08:52;63831.50;;;-140.59;100.00
76321;BME280;65132;52.088;5.402;2023-03-23T07:12:16;63831.50;;;-140.59;100.00
76321;BME280;65132;52.088;5.402;2023-03-23T07:15:41;63831.50;;;-140.59;100.00
76321;BME280;65132;52.088;5.402;2023-03-23T07:19:05;63831.50;;;-140.59;100.00
76321;BME280;65132;52.088;5.402;2023-03-23T07:22:31;63831.50;;;-140.59;100.00
76321;BME280;65132;52.088;5.402;2023-03-23T07:25:55;63831.50;;;-140.59;100.00
76321;BME280;65132;52.088;5.402;2023-03-23T07:29:19;63831.50;;;-140.59;100.00
76321;BME280;65132;52.088;5.402;2023-03-23T07:32:42;63831.50;;;-140.59;100.00
76321;BME280;65132;52.088;5.402;2023-03-23T07:36:07;63831.50;;;-140.59;100.00
76321;BME280;65132;52.088;5.402;2023-03-23T07:39:31;63831.50;;;-140.59;100.00
76321;BME280;65132;52.088;5.402;2023-03-23T07:42:56;63831.50;;;-140.59;100.00
76321;BME280;65132;52.088;5.402;2023-03-23T07:46:20;63831.50;;;-140.59;100.00
76321;BME280;65132;52.088;5.402;2023-03-23T07:49:45;63831.50;;;-140.59;100.00
76321;BME280;65132;52.088;5.402;2023-03-23T07:53:09;63831.50;;;-140.59;100.00
76321;BME280;65132;52.088;5.402;2023-03-23T07:56:34;63831.50;;;-140.59;100.00
76321;BME280;65132;52.088;5.402;2023-03-23T07:59:58;63831.50;;;-140.59;100.00
76321;BME280;65132;52.088;5.402;2023-03-23T08:03:23;63831.50;;;-140.59;100.00
76321;BME280;65132;52.088;5.402;2023-03-23T08:06:47;63831.50;;;-140.59;100.00
76321;BME280;65132;52.088;5.402;2023-03-23T08:10:14;63831.50;;;-140.59;100.00
76321;BME280;65132;52.088;5.402;2023-03-23T08:13:40;63831.50;;;-140.59;100.00
76321;BME280;65132;52.088;5.402;2023-03-23T08:17:07;63831.50;;;-140.59;100.00
76321;BME280;65132;52.088;5.402;2023-03-23T08:20:31;63831.50;;;-140.59;100.00
76321;BME280;65132;52.088;5.402;2023-03-23T08:23:59;63831.50;;;-140.59;100.00
76321;BME280;65132;52.088;5.402;2023-03-23T08:27:23;63831.50;;;-140.59;100.00
76321;BME280;65132;52.088;5.402;2023-03-23T08:30:47;63831.50;;;-140.59;100.00
76321;BME280;65132;52.088;5.402;2023-03-23T08:34:11;63831.50;;;-140.59;100.00
76321;BME280;65132;52.088;5.402;2023-03-23T08:37:35;63831.50;;;-140.59;100.00
76321;BME280;65132;52.088;5.402;2023-03-23T08:41:01;63831.50;;;-140.59;100.00
76321;BME280;65132;52.088;5.402;2023-03-23T08:44:25;63831.50;;;-140.59;100.00
76321;BME280;65132;52.088;5.402;2023-03-23T08:47:49;63831.50;;;-140.59;100.00
76321;BME280;65132;52.088;5.402;2023-03-23T08:51:13;63831.50;;;-140.59;100.00
76321;BME280;65132;52.088;5.402;2023-03-23T08:54:37;63831.50;;;-140.59;100.00
76321;BME280;65132;52.088;5.402;2023-03-23T08:58:01;63831.50;;;-140.59;100.00
76321;BME280;65132;52.088;5.402;2023-03-23T09:01:28;63831.50;;;-140.59;100.00
76321;BME280;65132;52.088;5.402;2023-03-23T09:04:52;63831.50;;;-140.59;100.00
76321;BME280;65132;52.088;5.402;2023-03-23T09:08:16;63831.50;;;-140.59;100.00
76321;BME280;65132;52.088;5.402;2023-03-23T09:11:40;63831.50;;;-140.59;100.00
76321;BME280;65132;52.088;5.402;2023-03-23T09:15:05;63831.50;;;-140.59;100.00
76321;BME280;65132;52.088;5.402;2023-03-23T09:18:32;63831.50;;;-140.59;100.00
76321;BME280;65132;52.088;5.402;2023-03-23T09:21:57;63831.50;;;-140.59;100.00
76321;BME280;65132;52.088;5.402;2023-03-23T09:25:24;63831.50;;;-140.59;100.00
76321;BME280;65132;52.088;5.402;2023-03-23T09:28:54;63831.50;;;-140.59;100.00
76321;BME280;65132;52.088;5.402;2023-03-23T09:32:27;63831.50;;;-140.59;100.00
76321;BME280;65132;52.088;5.402;2023-03-23T09:35:50;63831.50;;;-140.59;100.00
76321;BME280;65132;52.088;5.402;2023-03-23T09:38:16;100405.41;;;13.97;77.23
76321;BME280;65132;52.088;5.402;2023-03-23T09:40:49;100395.66;;;13.64;78.11
76321;BME280;65132;52.088;5.402;2023-03-23T09:46:18;100412.28;;;14.77;73.69
76321;BME280;65132;52.088;5.402;2023-03-23T09:48:55;100413.56;;;14.35;71.34
76321;BME280;65132;52.088;5.402;2023-03-23T09:51:56;100409.47;;;14.01;74.27
76321;BME280;65132;52.088;5.402;2023-03-23T09:54:26;100404.44;;;14.20;71.79
76321;BME280;65132;52.088;5.402;2023-03-23T09:56:52;100407.28;;;14.35;71.40
76321;BME280;65132;52.088;5.402;2023-03-23T09:59:23;100418.72;;;13.84;72.66
76321;BME280;65132;52.088;5.402;2023-03-23T10:01:55;100420.91;;;13.88;75.32
76321;BME280;65132;52.088;5.402;2023-03-23T10:04:50;100443.53;;;13.89;72.08
76321;BME280;65132;52.088;5.402;2023-03-23T10:07:21;100431.16;;;14.17;70.95
76321;BME280;65132;52.088;5.402;2023-03-23T10:09:52;100428.97;;;14.12;70.96
76321;BME280;65132;52.088;5.402;2023-03-23T10:12:24;100440.66;;;14.29;72.05
76321;BME280;65132;52.088;5.402;2023-03-23T10:15:02;100444.09;;;14.76;70.68
76321;BME280;65132;52.088;5.402;2023-03-23T10:17:33;100431.91;;;14.72;69.75
76321;BME280;65132;52.088;5.402;2023-03-23T10:22:42;100451.38;;;14.30;69.68
76321;BME280;65132;52.088;5.402;2023-03-23T10:25:18;100456.50;;;14.25;69.65
76321;BME280;65132;52.088;5.402;2023-03-23T10:27:54;100457.91;;;14.05;69.33
76321;BME280;65132;52.088;5.402;2023-03-23T10:30:33;100450.88;;;14.19;70.90
76321;BME280;65132;52.088;5.402;2023-03-23T10:33:15;100444.34;;;13.97;70.50
76321;BME280;65132;52.088;5.402;2023-03-23T10:35:48;100445.06;;;13.83;69.93
76321;BME280;65132;52.088;5.402;2023-03-23T10:38:26;100453.59;;;13.72;69.99
76321;BME280;65132;52.088;5.402;2023-03-23T10:41:00;100460.72;;;13.81;70.43
76321;BME280;65132;52.088;5.402;2023-03-23T10:43:27;100460.69;;;13.97;69.23
76321;BME280;65132;52.088;5.402;2023-03-23T10:46:22;100456.09;;;13.90;68.92
76321;BME280;65132;52.088;5.402;2023-03-23T10:48:52;100464.19;;;14.14;68.59
76321;BME280;65132;52.088;5.402;2023-03-23T10:51:28;100462.84;;;14.49;67.96
76321;BME280;65132;52.088;5.402;2023-03-23T10:54:00;100461.13;;;14.09;68.47
76321;BME280;65132;52.088;5.402;2023-03-23T10:56:49;100457.75;;;14.07;68.16
76321;BME280;65132;52.088;5.402;2023-03-23T11:02:14;100451.13;;;14.93;67.30
76321;BME280;65132;52.088;5.402;2023-03-23T11:04:45;100462.44;;;14.60;66.06
76321;BME280;65132;52.088;5.402;2023-03-23T11:07:25;100458.03;;;14.59;67.61
76321;BME280;65132;52.088;5.402;2023-03-23T11:09:54;100470.13;;;15.98;61.78
76321;BME280;65132;52.088;5.402;2023-03-23T11:12:20;100471.63;;;16.15;61.93
76321;BME280;65132;52.088;5.402;2023-03-23T11:14:46;100493.41;;;15.34;63.34
76321;BME280;65132;52.088;5.402;2023-03-23T11:17:29;100480.94;;;14.42;64.98
76321;BME280;65132;52.088;5.402;2023-03-23T11:19:55;100469.44;;;13.61;66.13
76321;BME280;65132;52.088;5.402;2023-03-23T11:22:26;100472.25;;;13.99;67.13
76321;BME280;65132;52.088;5.402;2023-03-23T11:24:55;100457.56;;;14.16;65.29
76321;BME280;65132;52.088;5.402;2023-03-23T11:27:23;100447.06;;;15.12;61.93
76321;BME280;65132;52.088;5.402;2023-03-23T11:29:58;100456.56;;;16.05;59.92
76321;BME280;65132;52.088;5.402;2023-03-23T11:32:29;100453.88;;;16.40;58.87
76321;BME280;65132;52.088;5.402;2023-03-23T11:35:00;100453.16;;;16.03;58.82
76321;BME280;65132;52.088;5.402;2023-03-23T11:37:39;100467.06;;;15.27;60.96
76321;BME280;65132;52.088;5.402;2023-03-23T11:42:57;100465.03;;;14.06;65.31
76321;BME280;65132;52.088;5.402;2023-03-23T11:45:35;100463.75;;;13.94;65.84
76321;BME280;65132;52.088;5.402;2023-03-23T11:51:00;100459.09;;;14.11;66.58
76321;BME280;65132;52.088;5.402;2023-03-23T11:53:45;100464.19;;;14.14;67.22
76321;BME280;65132;52.088;5.402;2023-03-23T11:56:23;100471.66;;;14.12;67.17
76321;BME280;65132;52.088;5.402;2023-03-23T11:58:48;100476.81;;;13.99;70.36
76321;BME280;65132;52.088;5.402;2023-03-23T12:01:38;100480.66;;;13.74;72.40
76321;BME280;65132;52.088;5.402;2023-03-23T12:10:10;100485.41;;;13.72;76.07
76321;BME280;65132;52.088;5.402;2023-03-23T12:12:47;100463.69;;;15.47;73.54
76321;BME280;65132;52.088;5.402;2023-03-23T12:15:24;100465.78;;;15.75;68.63
76321;BME280;65132;52.088;5.402;2023-03-23T12:18:00;100461.16;;;15.61;67.85
76321;BME280;65132;52.088;5.402;2023-03-23T12:20:37;100454.03;;;14.92;71.39
76321;BME280;65132;52.088;5.402;2023-03-23T12:26:17;100452.38;;;14.91;72.43
76321;BME280;65132;52.088;5.402;2023-03-23T12:31:46;100444.66;;;14.72;71.51
76321;BME280;65132;52.088;5.402;2023-03-23T12:34:35;100441.22;;;14.78;72.75
76321;BME280;65132;52.088;5.402;2023-03-23T12:41:01;100444.78;;;15.23;69.82
76321;BME280;65132;52.088;5.402;2023-03-23T12:48:56;100434.38;;;16.79;61.21
76321;BME280;65132;52.088;5.402;2023-03-23T12:54:03;100432.78;;;17.06;59.09
76321;BME280;65132;52.088;5.402;2023-03-23T12:56:36;100428.47;;;16.97;59.47
76321;BME280;65132;52.088;5.402;2023-03-23T13:01:51;100415.63;;;17.18;58.28
76321;BME280;65132;52.088;5.402;2023-03-23T13:04:23;100414.38;;;16.07;61.78
76321;BME280;65132;52.088;5.402;2023-03-23T13:06:50;100409.50;;;15.59;63.41
76321;BME280;65132;52.088;5.402;2023-03-23T13:12:08;100411.69;;;15.26;65.69
76321;BME280;65132;52.088;5.402;2023-03-23T13:17:54;100437.31;;;15.17;64.76
76321;BME280;65132;52.088;5.402;2023-03-23T13:24:08;100440.78;;;14.89;65.62
76321;BME280;65132;52.088;5.402;2023-03-23T13:26:40;100443.41;;;15.05;66.23
76321;BME280;65132;52.088;5.402;2023-03-23T13:32:10;100444.03;;;15.29;65.49
76321;BME280;65132;52.088;5.402;2023-03-23T13:34:36;100446.66;;;15.23;65.44
76321;BME280;65132;52.088;5.402;2023-03-23T13:37:09;100437.50;;;15.16;65.04
76321;BME280;65132;52.088;5.402;2023-03-23T13:39:37;100422.19;;;14.92;66.69
76321;BME280;65132;52.088;5.402;2023-03-23T13:42:18;100438.84;;;14.75;67.43
76321;BME280;65132;52.088;5.402;2023-03-23T13:45:06;100446.84;;;14.76;66.74
76321;BME280;65132;52.088;5.402;2023-03-23T13:47:44;100450.28;;;14.70;67.61
76321;BME280;65132;52.088;5.402;2023-03-23T13:50:23;100439.75;;;14.67;67.47
76321;BME280;65132;52.088;5.402;2023-03-23T13:53:00;100445.34;;;14.74;67.80
76321;BME280;65132;52.088;5.402;2023-03-23T13:55:39;100451.72;;;14.58;68.26
76321;BME280;65132;52.088;5.402;2023-03-23T14:10:53;100442.56;;;13.74;75.22
76321;BME280;65132;52.088;5.402;2023-03-23T14:16:23;100459.75;;;13.66;78.28
76321;BME280;65132;52.088;5.402;2023-03-23T14:18:56;100449.81;;;14.89;75.30
76321;BME280;65132;52.088;5.402;2023-03-23T14:21:32;100462.91;;;15.53;74.40
76321;BME280;65132;52.088;5.402;2023-03-23T14:24:12;100455.50;;;15.25;74.87
76321;BME280;65132;52.088;5.402;2023-03-23T14:26:40;100452.09;;;15.00;75.95
76321;BME280;65132;52.088;5.402;2023-03-23T14:29:06;100462.09;;;15.30;74.28
76321;BME280;65132;52.088;5.402;2023-03-23T14:31:35;100454.31;;;15.65;74.01
76321;BME280;65132;52.088;5.402;2023-03-23T14:34:04;100447.13;;;16.07;71.17
76321;BME280;65132;52.088;5.402;2023-03-23T14:36:31;100434.50;;;15.48;70.92
76321;BME280;65132;52.088;5.402;2023-03-23T14:39:32;100443.19;;;15.81;70.25
76321;BME280;65132;52.088;5.402;2023-03-23T14:41:51;100415.06;;;16.59;63.45
76321;BME280;65132;52.088;5.402;2023-03-23T14:44:28;100400.22;;;17.93;63.96
76321;BME280;65132;52.088;5.402;2023-03-23T14:46:54;100377.50;;;18.53;59.75
76321;BME280;65132;52.088;5.402;2023-03-23T14:49:46;100382.97;;;17.10;59.90
76321;BME280;65132;52.088;5.402;2023-03-23T14:52:16;100378.44;;;16.75;62.17
76321;BME280;65132;52.088;5.402;2023-03-23T14:54:44;100366.19;;;16.92;60.84
76321;BME280;65132;52.088;5.402;2023-03-23T14:57:28;100363.28;;;16.37;62.74
76321;BME280;65132;52.088;5.402;2023-03-23T14:59:54;100371.31;;;15.88;63.36
76321;BME280;65132;52.088;5.402;2023-03-23T15:02:27;100353.69;;;17.04;60.32
76321;BME280;65132;52.088;5.402;2023-03-23T15:04:57;100356.41;;;17.93;58.33
76321;BME280;65132;52.088;5.402;2023-03-23T15:07:43;100365.69;;;18.46;54.13
76321;BME280;65132;52.088;5.402;2023-03-23T15:10:16;100370.41;;;19.18;53.66
76321;BME280;65132;52.088;5.402;2023-03-23T15:12:47;100368.50;;;19.57;50.54
76321;BME280;65132;52.088;5.402;2023-03-23T15:15:22;100376.53;;;19.52;52.32
76321;BME280;65132;52.088;5.402;2023-03-23T15:17:49;100373.16;;;19.57;50.83
76321;BME280;65132;52.088;5.402;2023-03-23T15:23:15;100375.06;;;18.24;54.65
76321;BME280;65132;52.088;5.402;2023-03-23T15:25:50;100367.75;;;17.90;56.49
76321;BME280;65132;52.088;5.402;2023-03-23T15:28:20;100355.97;;;17.01;59.00
76321;BME280;65132;52.088;5.402;2023-03-23T15:30:48;100353.16;;;16.31;60.06